createdAt,value
2023-01-04T00:00:29.331Z,990.54
2023-01-04T00:01:29.274Z,990.43
2023-01-04T00:02:29.360Z,990.49
2023-01-04T00:03:29.487Z,990.52
2023-01-04T00:04:29.213Z,990.59
2023-01-04T00:05:29.543Z,990.57
2023-01-04T00:06:29.183Z,990.61
2023-01-04T00:07:29.169Z,990.53
2023-01-04T00:08:29.153Z,990.54
2023-01-04T00:09:29.163Z,990.58
2023-01-04T00:10:29.140Z,990.52
2023-01-04T00:11:29.115Z,990.55
2023-01-04T00:12:29.105Z,990.53
2023-01-04T00:13:29.079Z,990.58
2023-01-04T00:14:29.080Z,990.49
2023-01-04T00:15:29.081Z,990.44
2023-01-04T00:16:29.162Z,990.54
2023-01-04T00:17:29.053Z,990.48
2023-01-04T00:18:29.017Z,990.41
2023-01-04T00:19:29.020Z,990.37
2023-01-04T00:20:29.013Z,990.37
2023-01-04T00:21:28.991Z,990.36
2023-01-04T00:22:28.989Z,990.41
2023-01-04T00:23:28.945Z,990.37
2023-01-04T00:24:28.928Z,990.45
2023-01-04T00:25:28.921Z,990.44
2023-01-04T00:26:28.910Z,990.38
2023-01-04T00:27:28.887Z,990.42
2023-01-04T00:28:28.875Z,990.43
2023-01-04T00:29:28.870Z,990.31
2023-01-04T00:30:28.858Z,990.30
2023-01-04T00:31:29.056Z,990.25
2023-01-04T00:32:28.821Z,990.19
2023-01-04T00:33:28.842Z,990.18
2023-01-04T00:34:28.795Z,990.17
2023-01-04T00:35:45.270Z,990.14
2023-01-04T00:36:29.834Z,990.15
2023-01-04T00:37:28.749Z,990.12
2023-01-04T00:38:28.748Z,990.10
2023-01-04T00:39:28.721Z,990.12
2023-01-04T00:40:28.712Z,990.13
2023-01-04T00:41:57.396Z,990.06
2023-01-04T00:42:29.708Z,990.12
2023-01-04T00:43:28.670Z,990.08
2023-01-04T00:44:28.793Z,990.07
2023-01-04T00:45:28.647Z,989.98
2023-01-04T00:46:28.729Z,990.04
2023-01-04T00:47:28.619Z,990.06
2023-01-04T00:48:28.629Z,989.96
2023-01-04T00:49:28.614Z,990.02
2023-01-04T00:50:28.585Z,989.97
2023-01-04T00:51:28.567Z,990.02
2023-01-04T00:52:28.544Z,990.02
2023-01-04T00:53:28.533Z,990.06
2023-01-04T00:54:28.522Z,989.96
2023-01-04T00:55:28.506Z,989.93
2023-01-04T00:56:28.493Z,989.99
2023-01-04T00:57:28.481Z,990.01
2023-01-04T00:58:28.469Z,989.94
2023-01-04T00:59:28.461Z,989.96
2023-01-04T01:00:28.439Z,989.99
2023-01-04T01:01:28.509Z,989.94
2023-01-04T01:02:28.802Z,989.93
2023-01-04T01:03:30.982Z,989.82
2023-01-04T01:04:29.491Z,989.92
2023-01-04T01:05:28.446Z,989.90
2023-01-04T01:06:28.359Z,989.92
2023-01-04T01:07:28.344Z,989.83
2023-01-04T01:08:28.332Z,989.79
2023-01-04T01:09:28.335Z,989.84
2023-01-04T01:10:28.310Z,989.66
2023-01-04T01:11:28.289Z,989.81
2023-01-04T01:12:28.283Z,989.85
2023-01-04T01:13:28.268Z,989.65
2023-01-04T01:14:28.286Z,989.81
2023-01-04T01:15:28.377Z,989.78
2023-01-04T01:16:53.085Z,989.69
2023-01-04T01:17:29.231Z,989.67
2023-01-04T01:18:28.203Z,989.70
2023-01-04T01:19:28.194Z,989.67
2023-01-04T01:20:28.163Z,989.68
2023-01-04T01:21:28.189Z,989.76
2023-01-04T01:22:28.136Z,989.70
2023-01-04T01:23:28.126Z,989.66
2023-01-04T01:24:28.231Z,989.70
2023-01-04T01:25:28.098Z,989.70
2023-01-04T01:26:28.084Z,989.69
2023-01-04T01:27:28.073Z,989.69
2023-01-04T01:28:28.060Z,989.69
2023-01-04T01:29:28.041Z,989.72
2023-01-04T01:30:28.023Z,989.67
2023-01-04T01:31:28.070Z,989.76
2023-01-04T01:32:28.005Z,989.86
2023-01-04T01:33:27.986Z,989.81
2023-01-04T01:34:27.974Z,989.81
2023-01-04T01:35:27.974Z,989.83
2023-01-04T01:36:27.947Z,989.81
2023-01-04T01:37:27.967Z,989.83
2023-01-04T01:38:27.923Z,989.81
2023-01-04T01:39:27.907Z,989.85
2023-01-04T01:40:27.890Z,989.75
2023-01-04T01:41:27.978Z,989.80
2023-01-04T01:42:27.864Z,989.83
2023-01-04T01:43:27.951Z,989.80
2023-01-04T01:44:27.893Z,989.78
2023-01-04T01:45:27.923Z,989.84
2023-01-04T01:46:27.907Z,989.77
2023-01-04T01:47:27.795Z,989.71
2023-01-04T01:48:27.792Z,989.76
2023-01-04T01:49:27.768Z,989.75
2023-01-04T01:50:27.770Z,989.72
2023-01-04T01:51:27.746Z,989.73
2023-01-04T01:52:27.747Z,989.70
2023-01-04T01:53:27.747Z,989.77
2023-01-04T01:54:27.703Z,989.83
2023-01-04T01:55:27.699Z,989.80
2023-01-04T01:56:27.676Z,989.81
2023-01-04T01:57:27.664Z,989.79
2023-01-04T01:58:27.656Z,989.83
2023-01-04T01:59:27.656Z,989.83
2023-01-04T02:00:27.625Z,989.82
2023-01-04T02:01:27.818Z,989.77
2023-01-04T02:02:27.847Z,989.79
2023-01-04T02:03:27.766Z,989.77
2023-01-04T02:04:27.577Z,989.81
2023-01-04T02:05:27.563Z,989.76
2023-01-04T02:06:27.559Z,989.73
2023-01-04T02:07:27.537Z,989.75
2023-01-04T02:08:27.516Z,989.74
2023-01-04T02:09:27.535Z,989.74
2023-01-04T02:10:27.488Z,989.74
2023-01-04T02:11:27.484Z,989.72
2023-01-04T02:12:27.459Z,989.69
2023-01-04T02:13:27.452Z,989.67
2023-01-04T02:14:27.436Z,989.66
2023-01-04T02:15:27.414Z,989.72
2023-01-04T02:16:27.445Z,989.74
2023-01-04T02:17:27.396Z,989.70
2023-01-04T02:18:27.381Z,989.62
2023-01-04T02:19:27.362Z,989.66
2023-01-04T02:20:27.362Z,989.62
2023-01-04T02:21:27.346Z,989.67
2023-01-04T02:22:27.327Z,989.61
2023-01-04T02:23:27.306Z,989.61
2023-01-04T02:24:27.297Z,989.58
2023-01-04T02:25:27.310Z,989.62
2023-01-04T02:26:27.267Z,989.58
2023-01-04T02:27:27.257Z,989.63
2023-01-04T02:28:27.239Z,989.57
2023-01-04T02:29:27.234Z,989.60
2023-01-04T02:30:27.215Z,989.61
2023-01-04T02:31:27.260Z,989.61
2023-01-04T02:32:27.184Z,989.56
2023-01-04T02:33:27.179Z,989.62
2023-01-04T02:34:27.162Z,989.64
2023-01-04T02:35:27.170Z,989.63
2023-01-04T02:36:27.154Z,989.60
2023-01-04T02:37:27.123Z,989.51
2023-01-04T02:38:27.104Z,989.54
2023-01-04T02:39:27.092Z,989.46
2023-01-04T02:40:27.081Z,989.52
2023-01-04T02:41:27.110Z,989.55
2023-01-04T02:42:27.056Z,989.54
2023-01-04T02:43:27.049Z,989.50
2023-01-04T02:44:27.026Z,989.54
2023-01-04T02:45:27.015Z,989.47
2023-01-04T02:46:27.085Z,989.43
2023-01-04T02:47:26.990Z,989.44
2023-01-04T02:48:26.977Z,989.42
2023-01-04T02:49:26.966Z,989.50
2023-01-04T02:50:26.948Z,989.44
2023-01-04T02:51:26.936Z,989.45
2023-01-04T02:52:26.929Z,989.48
2023-01-04T02:53:26.906Z,989.40
2023-01-04T02:54:26.891Z,989.47
2023-01-04T02:55:26.883Z,989.43
2023-01-04T02:56:26.869Z,989.47
2023-01-04T02:57:26.876Z,989.41
2023-01-04T02:58:26.843Z,989.46
2023-01-04T02:59:26.824Z,989.38
2023-01-04T03:00:26.813Z,989.43
2023-01-04T03:01:26.928Z,989.42
2023-01-04T03:02:27.008Z,989.41
2023-01-04T03:03:27.045Z,989.43
2023-01-04T03:04:26.756Z,989.35
2023-01-04T03:05:26.760Z,989.36
2023-01-04T03:06:26.735Z,989.33
2023-01-04T03:07:26.714Z,989.36
2023-01-04T03:08:26.704Z,989.31
2023-01-04T03:09:26.693Z,989.31
2023-01-04T03:10:26.671Z,989.41
2023-01-04T03:11:26.659Z,989.32
2023-01-04T03:12:26.648Z,989.36
2023-01-04T03:13:26.672Z,989.32
2023-01-04T03:14:32.090Z,989.33
2023-01-04T03:15:27.628Z,989.29
2023-01-04T03:16:26.779Z,989.34
2023-01-04T03:17:26.585Z,989.27
2023-01-04T03:18:26.576Z,989.22
2023-01-04T03:19:26.550Z,989.21
2023-01-04T03:20:26.538Z,989.20
2023-01-04T03:21:26.539Z,989.22
2023-01-04T03:22:26.523Z,989.15
2023-01-04T03:23:26.497Z,989.09
2023-01-04T03:24:26.487Z,989.10
2023-01-04T03:25:26.465Z,989.01
2023-01-04T03:26:26.456Z,989.06
2023-01-04T03:27:26.441Z,989.11
2023-01-04T03:28:26.433Z,989.09
2023-01-04T03:29:26.436Z,989.04
2023-01-04T03:30:26.400Z,988.98
2023-01-04T03:31:26.504Z,989.01
2023-01-04T03:32:26.374Z,988.98
2023-01-04T03:33:26.370Z,988.98
2023-01-04T03:34:26.341Z,989.02
2023-01-04T03:35:26.332Z,988.96
2023-01-04T03:36:26.319Z,989.01
2023-01-04T03:37:26.305Z,989.04
2023-01-04T03:38:26.291Z,989.04
2023-01-04T03:39:26.279Z,988.98
2023-01-04T03:40:26.261Z,989.00
2023-01-04T03:41:26.247Z,988.93
2023-01-04T03:42:26.245Z,988.93
2023-01-04T03:43:26.226Z,988.96
2023-01-04T03:44:26.214Z,988.97
2023-01-04T03:45:26.211Z,989.00
2023-01-04T03:46:26.273Z,988.98
2023-01-04T03:47:26.163Z,988.95
2023-01-04T03:48:26.239Z,988.89
2023-01-04T03:49:26.135Z,988.90
2023-01-04T03:50:26.126Z,988.89
2023-01-04T03:51:26.112Z,988.96
2023-01-04T03:52:26.090Z,988.93
2023-01-04T03:53:26.076Z,989.02
2023-01-04T03:54:26.072Z,989.02
2023-01-04T03:55:26.053Z,988.93
2023-01-04T03:56:26.049Z,988.94
2023-01-04T03:57:26.035Z,988.95
2023-01-04T03:58:26.026Z,988.89
2023-01-04T03:59:25.999Z,988.87
2023-01-04T04:00:26.123Z,988.92
2023-01-04T04:01:26.170Z,988.91
2023-01-04T04:02:26.036Z,988.84
2023-01-04T04:03:26.062Z,988.88
2023-01-04T04:04:26.055Z,988.91
2023-01-04T04:05:25.921Z,988.88
2023-01-04T04:06:25.906Z,988.86
2023-01-04T04:07:25.883Z,988.82
2023-01-04T04:08:25.875Z,988.85
2023-01-04T04:09:25.856Z,988.92
2023-01-04T04:10:25.866Z,988.80
2023-01-04T04:11:25.831Z,988.82
2023-01-04T04:12:25.821Z,988.82
2023-01-04T04:13:25.805Z,988.76
2023-01-04T04:14:25.796Z,988.79
2023-01-04T04:15:25.780Z,988.80
2023-01-04T04:16:25.835Z,988.75
2023-01-04T04:17:25.778Z,988.73
2023-01-04T04:18:25.738Z,988.71
2023-01-04T04:19:25.726Z,988.72
2023-01-04T04:20:25.714Z,988.74
2023-01-04T04:21:25.703Z,988.73
2023-01-04T04:22:25.679Z,988.84
2023-01-04T04:23:25.664Z,988.77
2023-01-04T04:24:25.666Z,988.72
2023-01-04T04:25:25.634Z,988.70
2023-01-04T04:26:25.628Z,988.68
2023-01-04T04:27:25.618Z,988.73
2023-01-04T04:28:25.601Z,988.68
2023-01-04T04:29:25.588Z,988.65
2023-01-04T04:30:25.575Z,988.65
2023-01-04T04:31:25.643Z,988.61
2023-01-04T04:32:25.547Z,988.64
2023-01-04T04:33:25.567Z,988.62
2023-01-04T04:34:25.514Z,988.64
2023-01-04T04:35:25.507Z,988.60
2023-01-04T04:36:25.489Z,988.60
2023-01-04T04:37:25.473Z,988.63
2023-01-04T04:38:25.471Z,988.61
2023-01-04T04:39:25.450Z,988.57
2023-01-04T04:40:25.434Z,988.59
2023-01-04T04:41:25.452Z,988.60
2023-01-04T04:42:25.416Z,988.63
2023-01-04T04:43:25.406Z,988.66
2023-01-04T04:44:25.376Z,988.64
2023-01-04T04:45:25.423Z,988.70
2023-01-04T04:46:25.465Z,988.69
2023-01-04T04:47:25.335Z,988.63
2023-01-04T04:48:25.321Z,988.67
2023-01-04T04:49:25.333Z,988.71
2023-01-04T04:50:25.293Z,988.69
2023-01-04T04:51:25.282Z,988.72
2023-01-04T04:52:25.271Z,988.64
2023-01-04T04:53:25.265Z,988.63
2023-01-04T04:54:25.261Z,988.58
2023-01-04T04:55:25.233Z,988.60
2023-01-04T04:56:25.213Z,988.59
2023-01-04T04:57:25.216Z,988.60
2023-01-04T04:58:25.189Z,988.59
2023-01-04T04:59:25.185Z,988.57
2023-01-04T05:00:25.162Z,988.48
2023-01-04T05:01:25.248Z,988.54
2023-01-04T05:02:25.337Z,988.52
2023-01-04T05:03:25.211Z,988.46
2023-01-04T05:04:25.120Z,988.55
2023-01-04T05:05:25.153Z,988.52
2023-01-04T05:06:25.096Z,988.49
2023-01-04T05:07:25.066Z,988.52
2023-01-04T05:08:25.060Z,988.54
2023-01-04T05:09:25.056Z,988.53
2023-01-04T05:10:25.036Z,988.43
2023-01-04T05:11:25.013Z,988.43
2023-01-04T05:12:25.008Z,988.41
2023-01-04T05:13:25.005Z,988.45
2023-01-04T05:14:24.984Z,988.45
2023-01-04T05:15:24.965Z,988.44
2023-01-04T05:16:25.010Z,988.44
2023-01-04T05:17:24.943Z,988.45
2023-01-04T05:18:24.921Z,988.44
2023-01-04T05:19:24.943Z,988.50
2023-01-04T05:20:24.894Z,988.49
2023-01-04T05:21:24.902Z,988.52
2023-01-04T05:22:24.861Z,988.49
2023-01-04T05:23:24.878Z,988.45
2023-01-04T05:24:24.837Z,988.51
2023-01-04T05:25:24.834Z,988.52
2023-01-04T05:26:24.828Z,988.48
2023-01-04T05:27:24.792Z,988.47
2023-01-04T05:28:24.774Z,988.46
2023-01-04T05:29:24.769Z,988.45
2023-01-04T05:30:24.748Z,988.44
2023-01-04T05:31:24.803Z,988.38
2023-01-04T05:32:24.736Z,988.40
2023-01-04T05:33:24.719Z,988.34
2023-01-04T05:34:24.714Z,988.36
2023-01-04T05:35:24.691Z,988.33
2023-01-04T05:36:24.670Z,988.33
2023-01-04T05:37:24.683Z,988.25
2023-01-04T05:38:24.661Z,988.22
2023-01-04T05:39:24.628Z,988.29
2023-01-04T05:40:24.608Z,988.41
2023-01-04T05:41:24.601Z,988.40
2023-01-04T05:42:24.590Z,988.34
2023-01-04T05:43:24.570Z,988.38
2023-01-04T05:44:24.558Z,988.40
2023-01-04T05:45:24.554Z,988.25
2023-01-04T05:46:24.611Z,988.30
2023-01-04T05:47:24.553Z,988.32
2023-01-04T05:48:24.505Z,988.29
2023-01-04T05:49:24.488Z,988.31
2023-01-04T05:50:24.478Z,988.28
2023-01-04T05:51:24.465Z,988.34
2023-01-04T05:52:24.499Z,988.26
2023-01-04T05:53:24.463Z,988.31
2023-01-04T05:54:24.419Z,988.33
2023-01-04T05:55:24.420Z,988.29
2023-01-04T05:56:24.400Z,988.32
2023-01-04T05:57:24.388Z,988.29
2023-01-04T05:58:24.371Z,988.34
2023-01-04T05:59:24.369Z,988.31
2023-01-04T06:00:24.341Z,988.22
2023-01-04T06:01:24.406Z,988.19
2023-01-04T06:02:24.468Z,988.14
2023-01-04T06:03:24.496Z,988.13
2023-01-04T06:04:24.292Z,988.18
2023-01-04T06:05:24.274Z,988.12
2023-01-04T06:06:24.259Z,988.15
2023-01-04T06:07:24.251Z,988.14
2023-01-04T06:08:24.227Z,988.11
2023-01-04T06:09:24.235Z,988.18
2023-01-04T06:10:24.195Z,988.16
2023-01-04T06:11:27.599Z,988.21
2023-01-04T06:12:24.179Z,988.20
2023-01-04T06:13:24.171Z,988.25
2023-01-04T06:14:24.154Z,988.29
2023-01-04T06:15:24.135Z,988.23
2023-01-04T06:16:24.243Z,988.21
2023-01-04T06:17:24.117Z,988.30
2023-01-04T06:18:24.098Z,988.25
2023-01-04T06:19:24.083Z,988.19
2023-01-04T06:20:24.066Z,988.13
2023-01-04T06:21:24.054Z,988.13
2023-01-04T06:22:24.041Z,988.12
2023-01-04T06:23:24.044Z,988.10
2023-01-04T06:24:24.015Z,988.00
2023-01-04T06:25:24.027Z,988.08
2023-01-04T06:26:23.992Z,988.13
2023-01-04T06:27:23.979Z,988.08
2023-01-04T06:28:23.954Z,988.03
2023-01-04T06:29:23.940Z,988.11
2023-01-04T06:30:23.965Z,988.17
2023-01-04T06:31:24.007Z,988.11
2023-01-04T06:32:23.894Z,988.13
2023-01-04T06:33:23.887Z,988.09
2023-01-04T06:34:30.307Z,988.02
2023-01-04T06:35:24.899Z,988.01
2023-01-04T06:36:23.847Z,988.07
2023-01-04T06:37:23.857Z,988.03
2023-01-04T06:38:23.833Z,988.04
2023-01-04T06:39:23.814Z,988.02
2023-01-04T06:40:23.801Z,987.98
2023-01-04T06:41:23.798Z,988.05
2023-01-04T06:42:23.764Z,988.10
2023-01-04T06:43:23.756Z,988.07
2023-01-04T06:44:23.735Z,988.13
2023-01-04T06:45:23.724Z,987.99
2023-01-04T06:46:23.764Z,988.01
2023-01-04T06:47:23.696Z,988.02
2023-01-04T06:48:23.691Z,988.02
2023-01-04T06:49:23.675Z,987.99
2023-01-04T06:50:23.660Z,988.07
2023-01-04T06:51:23.644Z,988.06
2023-01-04T06:52:23.632Z,988.00
2023-01-04T06:53:23.620Z,988.02
2023-01-04T06:54:23.608Z,988.03
2023-01-04T06:55:23.592Z,987.94
2023-01-04T06:56:23.575Z,987.96
2023-01-04T06:57:23.596Z,987.92
2023-01-04T06:58:23.556Z,987.90
2023-01-04T06:59:23.530Z,987.93
2023-01-04T07:00:23.522Z,987.91
2023-01-04T07:01:23.645Z,987.94
2023-01-04T07:02:23.659Z,988.01
2023-01-04T07:03:23.634Z,987.97
2023-01-04T07:04:23.524Z,987.90
2023-01-04T07:05:23.457Z,987.95
2023-01-04T07:06:23.439Z,988.05
2023-01-04T07:07:23.434Z,987.98
2023-01-04T07:08:23.414Z,988.01
2023-01-04T07:09:23.403Z,988.01
2023-01-04T07:10:23.386Z,987.99
2023-01-04T07:11:23.379Z,987.93
2023-01-04T07:12:23.360Z,987.98
2023-01-04T07:13:23.369Z,987.94
2023-01-04T07:14:23.336Z,987.92
2023-01-04T07:15:38.060Z,987.95
2023-01-04T07:16:24.442Z,987.95
2023-01-04T07:17:29.629Z,987.98
2023-01-04T07:18:24.316Z,987.93
2023-01-04T07:19:23.269Z,987.93
2023-01-04T07:20:23.259Z,987.92
2023-01-04T07:21:23.247Z,987.96
2023-01-04T07:22:23.230Z,987.96
2023-01-04T07:23:23.218Z,987.97
2023-01-04T07:24:28.114Z,988.00
2023-01-04T07:25:24.209Z,988.00
2023-01-04T07:26:23.181Z,988.04
2023-01-04T07:27:23.162Z,988.02
2023-01-04T07:28:23.145Z,988.05
2023-01-04T07:29:23.152Z,988.05
2023-01-04T07:30:23.141Z,988.02
2023-01-04T07:31:23.169Z,987.98
2023-01-04T07:32:23.093Z,987.91
2023-01-04T07:33:23.081Z,987.93
2023-01-04T07:34:23.069Z,988.02
2023-01-04T07:35:23.056Z,988.01
2023-01-04T07:36:23.041Z,988.01
2023-01-04T07:37:23.029Z,987.95
2023-01-04T07:38:23.017Z,987.94
2023-01-04T07:39:23.014Z,987.95
2023-01-04T07:40:23.000Z,987.87
2023-01-04T07:41:22.970Z,987.94
2023-01-04T07:42:22.957Z,987.91
2023-01-04T07:43:28.011Z,987.86
2023-01-04T07:44:22.928Z,987.89
2023-01-04T07:45:22.942Z,987.91
2023-01-04T07:46:23.003Z,987.89
2023-01-04T07:47:22.896Z,987.89
2023-01-04T07:48:22.875Z,987.94
2023-01-04T07:49:22.874Z,987.80
2023-01-04T07:50:22.864Z,987.76
2023-01-04T07:51:22.843Z,987.78
2023-01-04T07:52:22.823Z,987.76
2023-01-04T07:53:22.807Z,987.70
2023-01-04T07:54:22.791Z,987.73
2023-01-04T07:55:22.783Z,987.69
2023-01-04T07:56:22.767Z,987.68
2023-01-04T07:57:22.751Z,987.70
2023-01-04T07:58:22.743Z,987.67
2023-01-04T07:59:22.727Z,987.72
2023-01-04T08:00:22.737Z,987.73
2023-01-04T08:01:22.839Z,987.71
2023-01-04T08:02:22.897Z,987.74
2023-01-04T08:03:22.677Z,987.80
2023-01-04T08:04:22.687Z,987.76
2023-01-04T08:05:22.698Z,987.84
2023-01-04T08:06:22.628Z,987.75
2023-01-04T08:07:22.625Z,987.78
2023-01-04T08:08:22.615Z,987.76
2023-01-04T08:09:22.597Z,987.77
2023-01-04T08:10:22.580Z,987.76
2023-01-04T08:11:22.571Z,987.82
2023-01-04T08:12:22.560Z,987.76
2023-01-04T08:13:22.555Z,987.73
2023-01-04T08:14:22.531Z,987.68
2023-01-04T08:15:22.509Z,987.73
2023-01-04T08:16:22.624Z,987.74
2023-01-04T08:17:22.512Z,987.64
2023-01-04T08:18:22.475Z,987.62
2023-01-04T08:19:22.463Z,987.63
2023-01-04T08:20:22.441Z,987.66
2023-01-04T08:21:22.428Z,987.57
2023-01-04T08:22:22.419Z,987.53
2023-01-04T08:23:22.404Z,987.57
2023-01-04T08:24:22.415Z,987.52
2023-01-04T08:25:22.382Z,987.51
2023-01-04T08:26:22.383Z,987.52
2023-01-04T08:27:22.356Z,987.50
2023-01-04T08:28:22.425Z,987.50
2023-01-04T08:29:22.323Z,987.51
2023-01-04T08:30:22.316Z,987.53
2023-01-04T08:31:22.477Z,987.50
2023-01-04T08:32:22.282Z,987.48
2023-01-04T08:33:22.293Z,987.41
2023-01-04T08:34:22.263Z,987.39
2023-01-04T08:35:22.234Z,987.39
2023-01-04T08:36:26.712Z,987.33
2023-01-04T08:37:22.216Z,987.31
2023-01-04T08:38:58.032Z,987.30
2023-01-04T08:39:23.217Z,987.33
2023-01-04T08:40:22.202Z,987.31
2023-01-04T08:41:55.982Z,987.24
2023-01-04T08:42:30.663Z,987.25
2023-01-04T08:43:23.163Z,987.23
2023-01-04T08:44:22.115Z,987.27
2023-01-04T08:45:22.099Z,987.24
2023-01-04T08:46:22.206Z,987.29
2023-01-04T08:47:22.082Z,987.30
2023-01-04T08:48:24.639Z,987.27
2023-01-04T08:49:22.167Z,987.30
2023-01-04T08:50:22.039Z,987.30
2023-01-04T08:51:22.022Z,987.24
2023-01-04T08:52:22.021Z,987.30
2023-01-04T08:53:22.006Z,987.20
2023-01-04T08:54:21.992Z,987.20
2023-01-04T08:55:23.695Z,987.22
2023-01-04T08:56:21.959Z,987.21
2023-01-04T08:57:21.949Z,987.11
2023-01-04T08:58:21.938Z,987.08
2023-01-04T08:59:21.948Z,987.11
2023-01-04T09:00:21.926Z,987.15
2023-01-04T09:01:22.068Z,987.06
2023-01-04T09:02:22.079Z,987.11
2023-01-04T09:03:21.954Z,987.15
2023-01-04T09:04:21.913Z,987.11
2023-01-04T09:05:21.933Z,987.15
2023-01-04T09:06:21.829Z,987.17
2023-01-04T09:07:21.813Z,987.08
2023-01-04T09:08:21.800Z,987.09
2023-01-04T09:09:21.783Z,987.00
2023-01-04T09:10:21.778Z,986.95
2023-01-04T09:11:21.754Z,986.96
2023-01-04T09:12:21.749Z,986.87
2023-01-04T09:13:21.734Z,986.96
2023-01-04T09:14:21.725Z,986.94
2023-01-04T09:15:21.708Z,986.93
2023-01-04T09:16:21.722Z,986.92
2023-01-04T09:17:21.681Z,986.91
2023-01-04T09:18:32.012Z,986.97
2023-01-04T09:19:23.026Z,986.92
2023-01-04T09:20:21.802Z,986.88
2023-01-04T09:21:21.643Z,986.97
2023-01-04T09:22:21.679Z,987.00
2023-01-04T09:23:21.612Z,986.86
2023-01-04T09:24:21.598Z,986.90
2023-01-04T09:25:21.573Z,986.93
2023-01-04T09:26:21.571Z,986.94
2023-01-04T09:27:21.551Z,986.87
2023-01-04T09:28:21.540Z,986.87
2023-01-04T09:29:21.517Z,986.88
2023-01-04T09:30:21.600Z,986.86
2023-01-04T09:31:21.579Z,986.88
2023-01-04T09:32:21.473Z,986.82
2023-01-04T09:33:27.882Z,986.81
2023-01-04T09:34:22.488Z,986.81
2023-01-04T09:35:21.437Z,986.86
2023-01-04T09:36:21.427Z,986.86
2023-01-04T09:37:21.450Z,986.80
2023-01-04T09:38:21.448Z,986.75
2023-01-04T09:39:23.450Z,986.86
2023-01-04T09:40:21.427Z,986.80
2023-01-04T09:41:21.356Z,986.75
2023-01-04T09:42:21.335Z,986.82
2023-01-04T09:43:22.341Z,986.77
2023-01-04T09:44:21.313Z,986.87
2023-01-04T09:45:24.301Z,986.87
2023-01-04T09:46:21.326Z,986.80
2023-01-04T09:47:21.267Z,986.91
2023-01-04T09:48:25.227Z,986.86
2023-01-04T09:49:21.247Z,986.91
2023-01-04T09:50:21.395Z,986.93
2023-01-04T09:51:21.214Z,986.93
2023-01-04T09:52:21.198Z,986.96
2023-01-04T09:53:21.237Z,986.94
2023-01-04T09:54:21.189Z,986.87
2023-01-04T09:55:38.692Z,986.79
2023-01-04T09:56:22.173Z,986.86
2023-01-04T09:57:21.133Z,986.76
2023-01-04T09:58:21.169Z,986.84
2023-01-04T09:59:21.111Z,986.79
2023-01-04T10:00:21.267Z,986.90
2023-01-04T10:01:21.222Z,986.85
2023-01-04T10:02:21.472Z,986.76
2023-01-04T10:03:21.414Z,986.80
2023-01-04T10:04:21.048Z,986.79
2023-01-04T10:05:21.028Z,986.78
2023-01-04T10:06:21.018Z,986.88
2023-01-04T10:07:21.006Z,986.79
2023-01-04T10:08:20.997Z,986.79
2023-01-04T10:09:21.018Z,986.84
2023-01-04T10:10:20.972Z,986.80
2023-01-04T10:11:20.949Z,986.80
2023-01-04T10:12:20.940Z,986.82
2023-01-04T10:13:20.919Z,986.88
2023-01-04T10:14:20.903Z,986.83
2023-01-04T10:15:20.887Z,986.84
2023-01-04T10:16:30.468Z,986.83
2023-01-04T10:17:44.403Z,986.76
2023-01-04T10:20:59.839Z,986.71
2023-01-04T10:21:32.248Z,986.80
2023-01-04T10:22:21.825Z,986.72
2023-01-04T10:23:20.792Z,986.68
2023-01-04T10:24:20.773Z,986.62
2023-01-04T10:25:20.808Z,986.61
2023-01-04T10:26:20.751Z,986.51
2023-01-04T10:27:20.727Z,986.52
2023-01-04T10:28:20.717Z,986.51
2023-01-04T10:29:20.697Z,986.43
2023-01-04T10:30:20.690Z,986.48
2023-01-04T10:31:39.808Z,986.47
2023-01-04T10:32:21.698Z,986.46
2023-01-04T10:33:20.653Z,986.43
2023-01-04T10:34:20.636Z,986.35
2023-01-04T10:35:20.663Z,986.35
2023-01-04T10:36:20.608Z,986.39
2023-01-04T10:37:20.588Z,986.46
2023-01-04T10:38:20.577Z,986.42
2023-01-04T10:39:20.558Z,986.44
2023-01-04T10:40:20.555Z,986.41
2023-01-04T10:41:20.579Z,986.49
2023-01-04T10:42:20.525Z,986.43
2023-01-04T10:43:20.593Z,986.35
2023-01-04T10:44:20.496Z,986.42
2023-01-04T10:45:20.507Z,986.43
2023-01-04T10:46:20.505Z,986.45
2023-01-04T10:47:20.534Z,986.39
2023-01-04T10:48:20.451Z,986.40
2023-01-04T10:49:20.427Z,986.31
2023-01-04T10:50:20.417Z,986.27
2023-01-04T10:51:20.400Z,986.25
2023-01-04T10:52:20.406Z,986.11
2023-01-04T10:53:20.374Z,986.16
2023-01-04T10:54:20.356Z,986.09
2023-01-04T10:55:20.342Z,986.13
2023-01-04T10:56:25.675Z,986.14
2023-01-04T10:57:21.361Z,986.14
2023-01-04T10:58:20.301Z,986.10
2023-01-04T10:59:20.294Z,986.06
2023-01-04T11:00:20.278Z,985.95
2023-01-04T11:01:20.369Z,986.06
2023-01-04T11:02:20.327Z,986.06
2023-01-04T11:03:20.387Z,986.00
2023-01-04T11:04:20.222Z,986.13
2023-01-04T11:05:20.209Z,986.02
2023-01-04T11:06:20.195Z,986.01
2023-01-04T11:07:20.176Z,986.01
2023-01-04T11:08:20.173Z,985.97
2023-01-04T11:09:25.089Z,985.91
2023-01-04T11:10:20.140Z,986.04
2023-01-04T11:11:20.124Z,985.98
2023-01-04T11:12:20.132Z,985.98
2023-01-04T11:13:20.146Z,986.00
2023-01-04T11:14:20.101Z,985.98
2023-01-04T11:15:20.077Z,986.03
2023-01-04T11:16:20.152Z,986.02
2023-01-04T11:17:20.043Z,985.98
2023-01-04T11:18:20.039Z,985.92
2023-01-04T11:19:20.017Z,985.87
2023-01-04T11:20:23.802Z,985.88
2023-01-04T11:21:21.015Z,985.89
2023-01-04T11:22:20.052Z,985.88
2023-01-04T11:23:20.187Z,985.93
2023-01-04T11:24:32.264Z,985.84
2023-01-04T11:25:37.179Z,985.87
2023-01-04T11:26:20.958Z,985.88
2023-01-04T11:27:25.133Z,985.97
2023-01-04T11:28:20.931Z,985.88
2023-01-04T11:29:19.905Z,985.97
2023-01-04T11:30:19.873Z,985.85
2023-01-04T11:31:19.897Z,985.88
2023-01-04T11:32:19.892Z,985.84
2023-01-04T11:33:19.837Z,985.78
2023-01-04T11:34:19.824Z,985.75
2023-01-04T11:35:19.804Z,985.76
2023-01-04T11:36:19.796Z,985.75
2023-01-04T11:37:19.811Z,985.79
2023-01-04T11:38:19.767Z,985.67
2023-01-04T11:39:19.750Z,985.66
2023-01-04T11:40:19.738Z,985.68
2023-01-04T11:41:19.720Z,985.69
2023-01-04T11:42:19.707Z,985.62
2023-01-04T11:43:19.688Z,985.61
2023-01-04T11:44:19.680Z,985.64
2023-01-04T11:45:19.696Z,985.62
2023-01-04T11:46:19.759Z,985.58
2023-01-04T11:47:19.668Z,985.55
2023-01-04T11:48:19.628Z,985.55
2023-01-04T11:49:19.670Z,985.58
2023-01-04T11:50:19.604Z,985.64
2023-01-04T11:51:19.589Z,985.61
2023-01-04T11:52:19.627Z,985.59
2023-01-04T11:53:19.661Z,985.61
2023-01-04T11:54:19.549Z,985.54
2023-01-04T11:55:19.540Z,985.46
2023-01-04T11:56:19.517Z,985.53
2023-01-04T11:57:19.502Z,985.50
2023-01-04T11:58:19.491Z,985.47
2023-01-04T11:59:25.263Z,985.50
2023-01-04T12:00:20.480Z,985.46
2023-01-04T12:01:19.522Z,985.52
2023-01-04T12:02:50.464Z,985.48
2023-01-04T12:03:20.442Z,985.35
2023-01-04T12:04:19.434Z,985.42
2023-01-04T12:05:24.538Z,985.34
2023-01-04T12:06:20.415Z,985.40
2023-01-04T12:07:19.368Z,985.46
2023-01-04T12:08:19.358Z,985.43
2023-01-04T12:09:19.346Z,985.50
2023-01-04T12:10:19.331Z,985.37
2023-01-04T12:11:19.315Z,985.53
2023-01-04T12:12:19.655Z,985.47
2023-01-04T12:13:19.289Z,985.47
2023-01-04T12:14:19.280Z,985.40
2023-01-04T12:15:19.261Z,985.45
2023-01-04T12:16:19.255Z,985.32
2023-01-04T12:17:19.256Z,985.31
2023-01-04T12:18:19.225Z,985.29
2023-01-04T12:19:19.209Z,985.37
2023-01-04T12:20:20.071Z,985.27
2023-01-04T12:21:19.185Z,985.32
2023-01-04T12:22:19.179Z,985.32
2023-01-04T12:23:19.147Z,985.28
2023-01-04T12:24:19.144Z,985.29
2023-01-04T12:25:19.119Z,985.30
2023-01-04T12:26:19.105Z,985.29
2023-01-04T12:27:19.090Z,985.32
2023-01-04T12:28:22.740Z,985.24
2023-01-04T12:29:19.071Z,985.21
2023-01-04T12:30:19.055Z,985.21